createdAt,value
2019-02-03T00:00:25.589Z,94100.94
2019-02-03T00:01:29.180Z,94095.96
2019-02-03T00:02:32.620Z,94093.34
2019-02-03T00:03:36.115Z,94095.02
2019-02-03T00:04:39.710Z,94094.05
2019-02-03T00:05:43.265Z,94096.99
2019-02-03T00:06:46.790Z,94097.52
2019-02-03T00:07:50.295Z,94101.99
2019-02-03T00:08:53.728Z,94097.70
2019-02-03T00:09:57.240Z,94103.80
2019-02-03T00:11:01.024Z,94104.57
2019-02-03T00:12:04.790Z,94106.69
2019-02-03T00:13:08.311Z,94108.02
2019-02-03T00:14:11.774Z,94099.12
2019-02-03T00:15:15.344Z,94097.45
2019-02-03T00:16:18.846Z,94100.77
2019-02-03T00:17:22.308Z,94103.19
2019-02-03T00:18:25.847Z,94104.45
2019-02-03T00:19:29.348Z,94113.38
2019-02-03T00:20:32.839Z,94111.91
2019-02-03T00:21:36.271Z,94108.53
2019-02-03T00:22:39.869Z,94115.77
2019-02-03T00:23:43.331Z,94113.75
2019-02-03T00:24:46.770Z,94125.26
2019-02-03T00:25:50.292Z,94117.83
2019-02-03T00:26:54.010Z,94114.83
2019-02-03T00:27:57.543Z,94114.45
2019-02-03T00:29:01.013Z,94111.84
2019-02-03T00:30:07.630Z,94105.32
2019-02-03T00:31:11.066Z,94107.41
2019-02-03T00:32:14.509Z,94111.31
2019-02-03T00:33:18.041Z,94110.20
2019-02-03T00:34:21.482Z,94115.05
2019-02-03T00:35:25.027Z,94110.77
2019-02-03T00:36:28.451Z,94108.76
2019-02-03T00:37:31.906Z,94116.58
2019-02-03T00:38:35.422Z,94119.72
2019-02-03T00:39:38.893Z,94114.52
2019-02-03T00:40:42.325Z,94115.06
2019-02-03T00:41:46.046Z,94117.48
2019-02-03T00:42:49.768Z,94120.81
2019-02-03T00:43:53.227Z,94125.26
2019-02-03T00:44:56.659Z,94131.41
2019-02-03T00:46:00.097Z,94134.95
2019-02-03T00:47:03.603Z,94128.08
2019-02-03T00:48:07.041Z,94134.02
2019-02-03T00:49:10.505Z,94127.50
2019-02-03T00:50:15.932Z,94127.89
2019-02-03T00:51:19.432Z,94129.19
2019-02-03T00:52:22.868Z,94127.14
2019-02-03T00:53:26.455Z,94115.41
2019-02-03T00:54:29.903Z,94116.16
2019-02-03T00:55:33.334Z,94110.75
2019-02-03T00:56:36.758Z,94115.03
2019-02-03T00:57:40.551Z,94113.53
2019-02-03T00:58:44.043Z,94114.64
2019-02-03T00:59:47.572Z,94114.81
2019-02-03T01:00:51.175Z,94115.73
2019-02-03T01:01:54.735Z,94116.29
2019-02-03T01:02:58.233Z,94117.76
2019-02-03T01:04:01.738Z,94117.95
2019-02-03T01:05:08.366Z,94120.23
2019-02-03T01:06:11.959Z,94118.73
2019-02-03T01:07:26.854Z,94116.13
2019-02-03T01:08:20.762Z,94117.83
2019-02-03T01:09:24.270Z,94112.76
2019-02-03T01:10:27.897Z,94124.87
2019-02-03T01:11:31.581Z,94125.80
2019-02-03T01:12:35.016Z,94131.76
2019-02-03T01:13:38.727Z,94136.80
2019-02-03T01:14:42.157Z,94128.42
2019-02-03T01:15:45.606Z,94128.26
2019-02-03T01:16:49.196Z,94125.65
2019-02-03T01:17:52.769Z,94116.91
2019-02-03T01:18:56.290Z,94124.36
2019-02-03T01:19:59.836Z,94122.28
2019-02-03T01:21:03.358Z,94119.52
2019-02-03T01:22:06.773Z,94126.03
2019-02-03T01:23:10.367Z,94134.41
2019-02-03T01:24:13.865Z,94132.94
2019-02-03T01:25:17.515Z,94138.34
2019-02-03T01:26:21.036Z,94130.69
2019-02-03T01:27:24.539Z,94141.86
2019-02-03T01:28:28.244Z,94140.00
2019-02-03T01:29:31.677Z,94141.84
2019-02-03T01:30:35.181Z,94137.61
2019-02-03T01:31:38.702Z,94135.73
2019-02-03T01:32:42.270Z,94134.42
2019-02-03T01:33:45.702Z,94136.86
2019-02-03T01:34:49.134Z,94137.05
2019-02-03T01:35:52.565Z,94144.30
2019-02-03T01:36:56.095Z,94134.61
2019-02-03T01:37:59.602Z,94139.06
2019-02-03T01:39:04.069Z,94139.43
2019-02-03T01:40:16.491Z,94142.02
2019-02-03T01:41:19.919Z,94148.17
2019-02-03T01:42:23.446Z,94142.02
2019-02-03T01:43:26.901Z,94138.47
2019-02-03T01:44:30.334Z,94138.30
2019-02-03T01:45:34.111Z,94139.64
2019-02-03T01:46:37.555Z,94138.70
2019-02-03T01:47:41.137Z,94144.64
2019-02-03T01:48:44.588Z,94133.84
2019-02-03T01:49:48.045Z,94142.83
2019-02-03T01:50:51.477Z,94139.29
2019-02-03T01:51:54.911Z,94140.80
2019-02-03T01:52:58.426Z,94140.78
2019-02-03T01:54:01.855Z,94145.08
2019-02-03T01:55:08.635Z,94151.01
2019-02-03T01:56:12.066Z,94151.57
2019-02-03T01:57:15.514Z,94148.02
2019-02-03T01:58:18.988Z,94143.93
2019-02-03T01:59:22.401Z,94141.53
2019-02-03T02:00:28.348Z,94150.45
2019-02-03T02:01:32.067Z,94149.34
2019-02-03T02:02:35.571Z,94143.93
2019-02-03T02:03:39.035Z,94142.08
2019-02-03T02:04:42.512Z,94142.06
2019-02-03T02:05:46.025Z,94142.23
2019-02-03T02:06:49.457Z,94145.02
2019-02-03T02:07:53.032Z,94147.27
2019-02-03T02:08:56.481Z,94143.16
2019-02-03T02:09:59.929Z,94137.41
2019-02-03T02:11:03.358Z,94146.53
2019-02-03T02:12:06.966Z,94140.98
2019-02-03T02:13:10.471Z,94140.63
2019-02-03T02:14:13.990Z,94146.01
2019-02-03T02:15:19.139Z,94143.05
2019-02-03T02:16:22.909Z,94148.06
2019-02-03T02:17:26.419Z,94146.76
2019-02-03T02:18:29.853Z,94143.58
2019-02-03T02:19:33.307Z,94148.43
2019-02-03T02:20:36.876Z,94148.28
2019-02-03T02:21:40.385Z,94144.73
2019-02-03T02:22:43.957Z,94139.92
2019-02-03T02:23:47.401Z,94139.72
2019-02-03T02:24:50.845Z,94140.45
2019-02-03T02:25:54.297Z,94144.17
2019-02-03T02:26:57.807Z,94136.74
2019-02-03T02:28:01.305Z,94144.91
2019-02-03T02:29:04.981Z,94144.19
2019-02-03T02:30:16.904Z,94146.03
2019-02-03T02:31:20.447Z,94143.61
2019-02-03T02:32:24.132Z,94141.39
2019-02-03T02:33:27.566Z,94146.96
2019-02-03T02:34:31.000Z,94141.04
2019-02-03T02:35:34.465Z,94139.16
2019-02-03T02:36:37.891Z,94141.20
2019-02-03T02:37:41.505Z,94138.42
2019-02-03T02:38:44.942Z,94136.92
2019-02-03T02:39:48.376Z,94136.00
2019-02-03T02:40:51.884Z,94133.57
2019-02-03T02:41:55.323Z,94133.76
2019-02-03T02:42:58.767Z,94135.44
2019-02-03T02:44:02.189Z,94135.05
2019-02-03T02:45:08.368Z,94130.23
2019-02-03T02:46:11.914Z,94134.50
2019-02-03T02:47:15.739Z,94137.06
2019-02-03T02:48:19.153Z,94139.49
2019-02-03T02:49:22.592Z,94144.91
2019-02-03T02:50:37.366Z,94149.38
2019-02-03T02:51:40.921Z,94145.66
2019-02-03T02:52:44.429Z,94149.93
2019-02-03T02:53:47.865Z,94143.97
2019-02-03T02:54:51.310Z,94142.84
2019-02-03T02:55:54.747Z,94141.34
2019-02-03T02:56:58.199Z,94140.44
2019-02-03T02:58:01.803Z,94144.51
2019-02-03T02:59:05.371Z,94151.05
2019-02-03T03:00:11.851Z,94148.45
2019-02-03T03:01:15.361Z,94144.72
2019-02-03T03:02:18.812Z,94150.11
2019-02-03T03:03:22.312Z,94153.83
2019-02-03T03:04:25.818Z,94151.44
2019-02-03T03:05:29.694Z,94155.87
2019-02-03T03:06:33.197Z,94148.82
2019-02-03T03:07:36.857Z,94157.41
2019-02-03T03:08:40.322Z,94161.86
2019-02-03T03:09:43.754Z,94153.66
2019-02-03T03:10:47.176Z,94156.28
2019-02-03T03:11:50.606Z,94153.11
2019-02-03T03:12:54.196Z,94152.38
2019-02-03T03:13:57.694Z,94156.45
2019-02-03T03:15:01.209Z,94149.20
2019-02-03T03:16:05.004Z,94154.03
2019-02-03T03:17:08.445Z,94154.41
2019-02-03T03:18:11.913Z,94152.74
2019-02-03T03:19:15.406Z,94153.48
2019-02-03T03:20:22.563Z,94158.88
2019-02-03T03:21:26.365Z,94157.37
2019-02-03T03:22:29.792Z,94152.91
2019-02-03T03:23:33.245Z,94157.75
2019-02-03T03:24:36.770Z,94159.07
2019-02-03T03:25:40.273Z,94157.59
2019-02-03T03:26:43.701Z,94152.95
2019-02-03T03:27:47.217Z,94157.78
2019-02-03T03:28:50.703Z,94156.67
2019-02-03T03:29:54.136Z,94150.52
2019-02-03T03:30:57.649Z,94160.19
2019-02-03T03:32:01.189Z,94157.78
2019-02-03T03:33:04.893Z,94166.32
2019-02-03T03:34:08.385Z,94159.26
2019-02-03T03:35:12.217Z,94159.25
2019-02-03T03:36:15.934Z,94164.66
2019-02-03T03:37:19.369Z,94160.20
2019-02-03T03:38:31.796Z,94167.06
2019-02-03T03:39:28.131Z,94163.55
2019-02-03T03:40:31.739Z,94170.98
2019-02-03T03:41:35.173Z,94176.56
2019-02-03T03:42:38.605Z,94172.30
2019-02-03T03:43:42.056Z,94176.02
2019-02-03T03:44:45.577Z,94179.34
2019-02-03T03:45:49.046Z,94181.39
2019-02-03T03:46:52.558Z,94187.17
2019-02-03T03:47:56.156Z,94186.62
2019-02-03T03:48:59.607Z,94187.00
2019-02-03T03:50:03.199Z,94179.34
2019-02-03T03:51:07.051Z,94183.45
2019-02-03T03:52:10.633Z,94174.51
2019-02-03T03:53:14.141Z,94173.23
2019-02-03T03:54:17.710Z,94177.69
2019-02-03T03:55:21.259Z,94175.27
2019-02-03T03:56:24.683Z,94181.95
2019-02-03T03:57:28.106Z,94180.83
2019-02-03T03:58:31.618Z,94180.65
2019-02-03T03:59:35.037Z,94180.47
2019-02-03T04:00:38.555Z,94182.91
2019-02-03T04:01:42.143Z,94181.79
2019-02-03T04:02:45.727Z,94177.87
2019-02-03T04:03:49.305Z,94177.12
2019-02-03T04:04:53.057Z,94177.69
2019-02-03T04:05:56.953Z,94175.09
2019-02-03T04:07:00.634Z,94180.10
2019-02-03T04:08:04.386Z,94177.48
2019-02-03T04:09:09.279Z,94184.00
2019-02-03T04:10:15.260Z,94186.80
2019-02-03T04:11:18.769Z,94191.83
2019-02-03T04:12:22.341Z,94197.59
2019-02-03T04:13:25.781Z,94197.78
2019-02-03T04:14:29.286Z,94201.67
2019-02-03T04:15:32.765Z,94203.36
2019-02-03T04:16:36.307Z,94200.75
2019-02-03T04:17:39.830Z,94195.16
2019-02-03T04:18:43.266Z,94195.33
2019-02-03T04:19:46.694Z,94195.53
2019-02-03T04:20:50.647Z,94199.44
2019-02-03T04:21:54.053Z,94202.41
2019-02-03T04:22:57.644Z,94201.12
2019-02-03T04:24:01.148Z,94201.11
2019-02-03T04:25:06.753Z,94200.94
2019-02-03T04:26:10.195Z,94204.47
2019-02-03T04:27:13.655Z,94202.61
2019-02-03T04:28:17.177Z,94207.24
2019-02-03T04:29:20.676Z,94203.89
2019-02-03T04:30:25.653Z,94214.88
2019-02-03T04:31:29.086Z,94214.52
2019-02-03T04:32:32.626Z,94210.42
2019-02-03T04:33:36.059Z,94218.75
2019-02-03T04:34:39.566Z,94220.64
2019-02-03T04:35:43.256Z,94220.98
2019-02-03T04:36:46.885Z,94223.97
2019-02-03T04:37:50.487Z,94222.84
2019-02-03T04:38:58.391Z,94229.37
2019-02-03T04:39:59.151Z,94226.20
2019-02-03T04:41:02.603Z,94231.60
2019-02-03T04:42:06.174Z,94227.89
2019-02-03T04:43:09.677Z,94226.78
2019-02-03T04:44:13.159Z,94228.25
2019-02-03T04:45:18.124Z,94232.52
2019-02-03T04:46:21.603Z,94232.14
2019-02-03T04:47:25.124Z,94243.69
2019-02-03T04:48:28.642Z,94239.59
2019-02-03T04:49:32.079Z,94234.17
2019-02-03T04:50:35.618Z,94239.20
2019-02-03T04:51:39.289Z,94235.50
2019-02-03T04:52:42.810Z,94243.50
2019-02-03T04:53:46.346Z,94248.34
2019-02-03T04:54:49.793Z,94251.31
2019-02-03T04:55:53.223Z,94249.08
2019-02-03T04:56:56.816Z,94250.95
2019-02-03T04:58:00.234Z,94256.72
2019-02-03T04:59:03.838Z,94254.09
2019-02-03T05:00:11.011Z,94257.82
2019-02-03T05:01:14.475Z,94257.82
2019-02-03T05:02:17.989Z,94256.72
2019-02-03T05:03:21.451Z,94261.91
2019-02-03T05:04:24.978Z,94262.12
2019-02-03T05:05:28.421Z,94263.20
2019-02-03T05:06:32.141Z,94268.61
2019-02-03T05:07:35.872Z,94269.91
2019-02-03T05:08:39.363Z,94274.56
2019-02-03T05:09:42.898Z,94276.05
2019-02-03T05:10:46.398Z,94278.08
2019-02-03T05:11:49.905Z,94280.12
2019-02-03T05:12:53.407Z,94279.75
2019-02-03T05:13:56.878Z,94281.75
2019-02-03T05:15:00.494Z,94285.45
2019-02-03T05:16:04.174Z,94283.98
2019-02-03T05:17:07.619Z,94283.43
2019-02-03T05:18:11.194Z,94289.59
2019-02-03T05:19:14.727Z,94290.13
2019-02-03T05:20:20.414Z,94297.94
2019-02-03T05:21:23.844Z,94289.76
2019-02-03T05:22:27.655Z,94293.84
2019-02-03T05:23:31.213Z,94289.94
2019-02-03T05:24:34.743Z,94290.89
2019-02-03T05:25:38.199Z,94295.92
2019-02-03T05:26:41.706Z,94294.79
2019-02-03T05:27:48.256Z,94295.55
2019-02-03T05:28:51.713Z,94295.48
2019-02-03T05:29:55.183Z,94297.36
2019-02-03T05:30:58.612Z,94295.14
2019-02-03T05:32:02.045Z,94292.36
2019-02-03T05:33:05.701Z,94294.59
2019-02-03T05:34:09.147Z,94296.78
2019-02-03T05:35:12.818Z,94295.48
2019-02-03T05:36:16.390Z,94298.43
2019-02-03T05:37:20.110Z,94296.20
2019-02-03T05:38:23.538Z,94299.77
2019-02-03T05:39:27.060Z,94295.69
2019-02-03T05:40:30.587Z,94300.48
2019-02-03T05:41:34.208Z,94296.95
2019-02-03T05:42:37.708Z,94304.73
2019-02-03T05:43:41.187Z,94308.42
2019-02-03T05:44:44.641Z,94309.34
2019-02-03T05:45:48.116Z,94310.77
2019-02-03T05:46:51.660Z,94315.09
2019-02-03T05:47:55.137Z,94312.70
2019-02-03T05:48:58.569Z,94312.66
2019-02-03T05:50:02.251Z,94312.32
2019-02-03T05:51:05.846Z,94313.63
2019-02-03T05:52:09.648Z,94302.42
2019-02-03T05:53:13.086Z,94319.58
2019-02-03T05:54:16.602Z,94322.35
2019-02-03T05:55:20.348Z,94323.86
2019-02-03T05:56:23.867Z,94323.14
2019-02-03T05:57:27.311Z,94327.22
2019-02-03T05:58:30.734Z,94333.52
2019-02-03T05:59:34.239Z,94334.06
2019-02-03T06:00:39.307Z,94331.12
2019-02-03T06:01:42.888Z,94335.60
2019-02-03T06:02:46.365Z,94338.20
2019-02-03T06:03:49.886Z,94339.50
2019-02-03T06:04:53.297Z,94342.82
2019-02-03T06:05:56.751Z,94336.11
2019-02-03T06:07:00.481Z,94344.67
2019-02-03T06:08:04.075Z,94340.56
2019-02-03T06:09:07.972Z,94340.94
2019-02-03T06:10:14.209Z,94342.65
2019-02-03T06:11:17.655Z,94342.28
2019-02-03T06:12:21.172Z,94340.60
2019-02-03T06:13:24.617Z,94338.34
2019-02-03T06:14:28.121Z,94345.39
2019-02-03T06:15:31.697Z,94342.78
2019-02-03T06:16:35.159Z,94348.30
2019-02-03T06:17:38.650Z,94345.08
2019-02-03T06:18:42.174Z,94343.39
2019-02-03T06:19:45.710Z,94355.63
2019-02-03T06:20:49.163Z,94354.17
2019-02-03T06:21:52.827Z,94347.88
2019-02-03T06:22:56.302Z,94354.43
2019-02-03T06:23:59.781Z,94361.11
2019-02-03T06:25:03.521Z,94355.34
2019-02-03T06:26:07.006Z,94363.09
2019-02-03T06:27:10.442Z,94363.48
2019-02-03T06:28:13.940Z,94363.85
2019-02-03T06:29:17.374Z,94373.89
2019-02-03T06:30:23.866Z,94367.97
2019-02-03T06:31:27.367Z,94380.00
2019-02-03T06:32:30.863Z,94375.94
2019-02-03T06:33:34.330Z,94383.58
2019-02-03T06:34:37.833Z,94386.50
2019-02-03T06:35:41.257Z,94385.26
2019-02-03T06:36:44.709Z,94385.81
2019-02-03T06:37:48.497Z,94388.23
2019-02-03T06:38:52.097Z,94393.45
2019-02-03T06:39:55.599Z,94397.08
2019-02-03T06:40:59.055Z,94401.17
2019-02-03T06:42:02.572Z,94396.91
2019-02-03T06:43:06.016Z,94402.28
2019-02-03T06:44:12.420Z,94405.30
2019-02-03T06:45:23.197Z,94411.05
2019-02-03T06:46:30.822Z,94415.74
2019-02-03T06:47:34.325Z,94410.40
2019-02-03T06:48:37.755Z,94411.70
2019-02-03T06:49:41.217Z,94408.88
2019-02-03T06:50:44.649Z,94413.19
2019-02-03T06:51:48.148Z,94422.47
2019-02-03T06:52:51.657Z,94418.95
2019-02-03T06:53:55.089Z,94418.08
2019-02-03T06:54:58.542Z,94422.91
2019-02-03T06:56:02.495Z,94422.20
2019-02-03T06:57:06.061Z,94420.86
2019-02-03T06:58:09.562Z,94431.79
2019-02-03T06:59:13.122Z,94427.73
2019-02-03T07:00:17.124Z,94431.24
2019-02-03T07:01:20.635Z,94435.32
2019-02-03T07:02:24.159Z,94434.92
2019-02-03T07:03:27.601Z,94438.30
2019-02-03T07:04:31.147Z,94440.12
2019-02-03T07:05:34.614Z,94444.55
2019-02-03T07:06:38.117Z,94442.88
2019-02-03T07:07:41.643Z,94447.92
2019-02-03T07:08:45.072Z,94452.44
2019-02-03T07:09:59.788Z,94451.90
2019-02-03T07:10:53.974Z,94455.41
2019-02-03T07:11:58.930Z,94451.84
2019-02-03T07:13:02.426Z,94458.88
2019-02-03T07:14:06.107Z,94464.00
2019-02-03T07:15:10.891Z,94460.70
2019-02-03T07:16:14.461Z,94465.90
2019-02-03T07:17:18.140Z,94468.88
2019-02-03T07:18:21.588Z,94470.55
2019-02-03T07:19:25.036Z,94479.28
2019-02-03T07:20:28.596Z,94476.30
2019-02-03T07:21:32.159Z,94479.08
2019-02-03T07:22:35.647Z,94484.63
2019-02-03T07:23:39.162Z,94482.20
2019-02-03T07:24:42.596Z,94486.70
2019-02-03T07:25:46.368Z,94489.28
2019-02-03T07:26:49.981Z,94486.10
2019-02-03T07:27:53.521Z,94499.67
2019-02-03T07:28:57.066Z,94501.52
2019-02-03T07:30:00.621Z,94503.44
2019-02-03T07:31:04.364Z,94503.05
2019-02-03T07:32:08.053Z,94501.38
2019-02-03T07:33:11.578Z,94506.06
2019-02-03T07:34:15.076Z,94510.63
2019-02-03T07:35:18.653Z,94511.77
2019-02-03T07:36:22.263Z,94511.39
2019-02-03T07:37:25.810Z,94515.69
2019-02-03T07:38:29.236Z,94514.77
2019-02-03T07:39:32.731Z,94519.38
2019-02-03T07:40:36.510Z,94521.41
2019-02-03T07:41:40.032Z,94519.20
2019-02-03T07:42:43.688Z,94521.55
2019-02-03T07:43:47.149Z,94523.62
2019-02-03T07:44:50.655Z,94524.03
2019-02-03T07:45:54.230Z,94527.13
2019-02-03T07:46:58.574Z,94526.22
2019-02-03T07:48:02.187Z,94526.06
2019-02-03T07:49:05.881Z,94528.92
2019-02-03T07:50:13.569Z,94532.38
2019-02-03T07:51:17.076Z,94529.00
2019-02-03T07:52:20.526Z,94529.77
2019-02-03T07:53:23.990Z,94531.98
2019-02-03T07:54:27.444Z,94542.39
2019-02-03T07:55:31.140Z,94537.01
2019-02-03T07:56:34.883Z,94549.85
2019-02-03T07:57:38.524Z,94545.66
2019-02-03T07:58:42.087Z,94548.77
2019-02-03T07:59:45.645Z,94546.34
2019-02-03T08:00:49.137Z,94554.43
2019-02-03T08:01:52.651Z,94553.83
2019-02-03T08:02:56.347Z,94551.85
2019-02-03T08:03:59.885Z,94561.32
2019-02-03T08:05:08.071Z,94556.89
2019-02-03T08:06:11.513Z,94566.30
2019-02-03T08:07:15.027Z,94560.25
2019-02-03T08:08:18.469Z,94570.23
2019-02-03T08:09:22.032Z,94568.44
2019-02-03T08:10:29.762Z,94568.73
2019-02-03T08:11:30.981Z,94574.11
2019-02-03T08:12:34.497Z,94576.70
2019-02-03T08:13:37.936Z,94580.73
2019-02-03T08:14:41.402Z,94585.48
2019-02-03T08:15:44.906Z,94581.37
2019-02-03T08:16:48.347Z,94583.07
2019-02-03T08:17:51.781Z,94580.89
2019-02-03T08:18:55.336Z,94586.72
2019-02-03T08:19:58.846Z,94589.31
2019-02-03T08:21:02.268Z,94595.51
2019-02-03T08:22:05.871Z,94594.75
2019-02-03T08:23:09.370Z,94599.20
2019-02-03T08:24:12.811Z,94600.34
2019-02-03T08:25:17.479Z,94595.20
2019-02-03T08:26:21.198Z,94593.66
2019-02-03T08:27:24.638Z,94601.07
2019-02-03T08:28:28.069Z,94605.84
2019-02-03T08:29:31.507Z,94605.83
2019-02-03T08:30:35.108Z,94609.18
2019-02-03T08:31:38.600Z,94612.39
2019-02-03T08:32:42.173Z,94612.78
2019-02-03T08:33:45.755Z,94617.16
2019-02-03T08:34:49.199Z,94617.98
2019-02-03T08:35:52.716Z,94620.76
2019-02-03T08:36:56.229Z,94622.24
2019-02-03T08:37:59.678Z,94627.26
2019-02-03T08:39:04.076Z,94630.13
2019-02-03T08:40:16.582Z,94634.11
2019-02-03T08:41:20.205Z,94637.29
2019-02-03T08:42:23.915Z,94639.70
2019-02-03T08:43:27.419Z,94640.52
2019-02-03T08:44:31.052Z,94637.68
2019-02-03T08:45:34.488Z,94638.20
2019-02-03T08:46:37.943Z,94638.41
2019-02-03T08:47:41.455Z,94646.59
2019-02-03T08:48:44.829Z,94651.10
2019-02-03T08:49:48.339Z,94650.19
2019-02-03T08:50:51.775Z,94653.09
2019-02-03T08:51:55.381Z,94657.18
2019-02-03T08:52:58.830Z,94663.38
2019-02-03T08:54:02.265Z,94664.10
2019-02-03T08:55:08.442Z,94660.53
2019-02-03T08:56:11.920Z,94675.11
2019-02-03T08:57:15.631Z,94670.81
2019-02-03T08:58:19.242Z,94673.20
2019-02-03T08:59:22.631Z,94678.34
2019-02-03T09:00:31.034Z,94685.14
2019-02-03T09:01:34.472Z,94688.16
2019-02-03T09:02:37.988Z,94686.44
2019-02-03T09:03:41.444Z,94690.43
2019-02-03T09:04:44.879Z,94696.12
2019-02-03T09:05:48.434Z,94695.30
2019-02-03T09:06:51.828Z,94700.31
2019-02-03T09:07:55.551Z,94704.77
2019-02-03T09:08:59.047Z,94699.92
2019-02-03T09:10:02.537Z,94702.62
2019-02-03T09:11:05.960Z,94712.30
2019-02-03T09:12:09.457Z,94705.50
2019-02-03T09:13:13.266Z,94710.48
2019-02-03T09:14:16.716Z,94716.11
2019-02-03T09:15:22.660Z,94707.07
2019-02-03T09:16:26.168Z,94714.17
2019-02-03T09:17:29.666Z,94711.60
2019-02-03T09:18:34.951Z,94711.20
2019-02-03T09:19:38.377Z,94720.00
2019-02-03T09:20:41.942Z,94719.93
2019-02-03T09:21:45.441Z,94720.47
2019-02-03T09:22:48.968Z,94718.30
2019-02-03T09:23:52.399Z,94723.11
2019-02-03T09:24:55.822Z,94727.61
2019-02-03T09:25:59.319Z,94732.91
2019-02-03T09:27:02.741Z,94735.94
2019-02-03T09:28:06.408Z,94737.78
2019-02-03T09:29:10.203Z,94746.20
2019-02-03T09:30:21.910Z,94742.69
2019-02-03T09:31:25.474Z,94750.13
2019-02-03T09:32:28.988Z,94754.29
2019-02-03T09:33:32.534Z,94747.39
2019-02-03T09:34:36.040Z,94752.20
2019-02-03T09:35:39.553Z,94753.81
2019-02-03T09:36:43.010Z,94765.52
2019-02-03T09:37:46.687Z,94761.44
2019-02-03T09:38:50.251Z,94765.28
2019-02-03T09:39:53.934Z,94773.59
2019-02-03T09:41:00.334Z,94774.50
2019-02-03T09:42:02.707Z,94778.41
2019-02-03T09:43:06.385Z,94778.01
2019-02-03T09:44:10.125Z,94777.50
2019-02-03T09:45:19.009Z,94785.41
2019-02-03T09:46:22.802Z,94785.23
2019-02-03T09:47:26.237Z,94779.60
2019-02-03T09:48:29.666Z,94792.20
2019-02-03T09:49:33.100Z,94791.99
2019-02-03T09:50:36.545Z,94791.59
2019-02-03T09:51:40.040Z,94793.25
2019-02-03T09:52:43.896Z,94794.41
2019-02-03T09:53:47.318Z,94792.75
2019-02-03T09:54:50.749Z,94801.09
2019-02-03T09:55:54.286Z,94806.51
2019-02-03T09:56:57.768Z,94801.49
2019-02-03T09:58:01.545Z,94812.29
2019-02-03T09:59:05.227Z,94822.11
2019-02-03T10:00:14.849Z,94815.31
2019-02-03T10:01:18.556Z,94817.09
2019-02-03T10:02:22.512Z,94813.91
2019-02-03T10:03:25.965Z,94815.10
2019-02-03T10:04:29.797Z,94824.02
2019-02-03T10:05:33.280Z,94823.12
2019-02-03T10:06:36.983Z,94821.86
2019-02-03T10:07:40.568Z,94819.75
2019-02-03T10:08:44.128Z,94820.11
2019-02-03T10:09:47.832Z,94824.59
2019-02-03T10:10:51.660Z,94825.36
2019-02-03T10:11:55.160Z,94824.49
2019-02-03T10:12:58.662Z,94830.52
2019-02-03T10:14:02.192Z,94821.39
2019-02-03T10:15:08.056Z,94832.79
2019-02-03T10:16:11.862Z,94832.67
2019-02-03T10:17:15.806Z,94840.57
2019-02-03T10:18:19.594Z,94841.37
2019-02-03T10:19:23.613Z,94845.72
2019-02-03T10:20:27.368Z,94842.11
2019-02-03T10:21:30.828Z,94848.88
2019-02-03T10:22:34.394Z,94851.22
2019-02-03T10:23:37.896Z,94844.72
2019-02-03T10:24:42.558Z,94853.19
2019-02-03T10:25:47.003Z,94848.20
2019-02-03T10:26:50.525Z,94851.93
2019-02-03T10:27:54.498Z,94848.20
2019-02-03T10:28:57.953Z,94850.16
2019-02-03T10:30:02.983Z,94852.62
2019-02-03T10:31:06.548Z,94849.57
2019-02-03T10:32:10.067Z,94852.64
2019-02-03T10:33:13.910Z,94848.86
2019-02-03T10:34:17.403Z,94854.14
2019-02-03T10:35:23.904Z,94857.60
2019-02-03T10:36:27.417Z,94864.14
2019-02-03T10:37:31.055Z,94857.00
2019-02-03T10:38:34.575Z,94862.55
2019-02-03T10:39:37.999Z,94858.30
2019-02-03T10:40:42.890Z,94860.39
2019-02-03T10:41:46.387Z,94863.30
2019-02-03T10:42:50.894Z,94855.40
2019-02-03T10:43:56.435Z,94866.30
2019-02-03T10:44:59.544Z,94860.44
2019-02-03T10:46:03.056Z,94863.73
2019-02-03T10:47:06.579Z,94858.24
2019-02-03T10:48:10.098Z,94859.19
2019-02-03T10:49:14.069Z,94866.48
2019-02-03T10:50:31.597Z,94867.59
2019-02-03T10:51:35.482Z,94870.17
2019-02-03T10:52:39.011Z,94873.36
2019-02-03T10:53:42.477Z,94876.87
2019-02-03T10:54:45.960Z,94882.11
2019-02-03T10:55:49.577Z,94879.36
2019-02-03T10:56:53.015Z,94874.62
2019-02-03T10:57:56.803Z,94875.72
2019-02-03T10:59:00.312Z,94875.72
2019-02-03T11:00:17.683Z,94877.73
2019-02-03T11:01:10.841Z,94876.51
2019-02-03T11:02:14.286Z,94874.00
2019-02-03T11:03:17.810Z,94878.44
2019-02-03T11:04:21.258Z,94880.78
2019-02-03T11:05:30.731Z,94880.36
2019-02-03T11:06:34.225Z,94880.76
2019-02-03T11:07:38.092Z,94879.60
2019-02-03T11:08:41.670Z,94879.80
2019-02-03T11:09:45.182Z,94880.93
2019-02-03T11:10:48.722Z,94880.22
2019-02-03T11:11:52.331Z,94879.94
2019-02-03T11:12:55.961Z,94885.77
2019-02-03T11:13:59.429Z,94891.34
2019-02-03T11:15:03.092Z,94888.47
2019-02-03T11:16:06.664Z,94887.75
2019-02-03T11:17:10.162Z,94894.25
2019-02-03T11:18:13.887Z,94895.69
2019-02-03T11:19:17.406Z,94894.33
2019-02-03T11:20:31.811Z,94896.55
2019-02-03T11:21:35.306Z,94898.04
2019-02-03T11:22:39.191Z,94895.95
2019-02-03T11:23:42.689Z,94902.59
2019-02-03T11:24:46.151Z,94906.95
2019-02-03T11:25:49.574Z,94906.47
2019-02-03T11:26:53.067Z,94899.84
2019-02-03T11:27:57.009Z,94903.78
2019-02-03T11:29:00.461Z,94913.78
2019-02-03T11:30:13.504Z,94909.48
2019-02-03T11:31:17.033Z,94910.89
2019-02-03T11:32:20.600Z,94913.99
2019-02-03T11:33:24.201Z,94917.25
2019-02-03T11:34:27.617Z,94915.34
2019-02-03T11:35:32.304Z,94917.58
2019-02-03T11:36:35.772Z,94914.80
2019-02-03T11:37:39.402Z,94917.91
2019-02-03T11:38:42.839Z,94918.94
2019-02-03T11:39:46.356Z,94922.31
2019-02-03T11:40:49.855Z,94915.81
2019-02-03T11:41:53.254Z,94914.41
2019-02-03T11:42:56.859Z,94921.59
2019-02-03T11:44:00.256Z,94927.81
2019-02-03T11:45:05.761Z,94889.42
2019-02-03T11:46:09.213Z,94924.59
2019-02-03T11:47:12.745Z,94934.98
2019-02-03T11:48:18.214Z,94931.08
2019-02-03T11:49:28.411Z,94936.55
2019-02-03T11:50:37.825Z,94932.56
2019-02-03T11:51:41.366Z,94944.84
2019-02-03T11:52:45.203Z,94940.63
2019-02-03T11:53:48.836Z,94945.86
2019-02-03T11:54:52.391Z,94952.81
2019-02-03T11:55:56.516Z,94941.03
2019-02-03T11:57:03.110Z,94946.58
2019-02-03T11:58:07.255Z,94940.84
2019-02-03T11:59:11.210Z,94947.53
2019-02-03T12:00:23.769Z,94949.81
2019-02-03T12:01:27.492Z,94954.11
2019-02-03T12:02:41.893Z,94959.18
2019-02-03T12:03:43.266Z,94963.34
2019-02-03T12:04:50.160Z,94955.01
2019-02-03T12:05:54.138Z,94959.18
2019-02-03T12:07:00.019Z,94963.92
2019-02-03T12:08:10.636Z,94969.09
2019-02-03T12:09:14.838Z,94969.22
2019-02-03T12:10:24.442Z,94975.53
2019-02-03T12:11:34.527Z,94978.13
2019-02-03T12:12:38.604Z,94977.94
2019-02-03T12:13:42.433Z,94978.34
2019-02-03T12:14:48.976Z,94974.52
2019-02-03T12:15:59.063Z,94978.97
2019-02-03T12:17:10.751Z,94979.70
2019-02-03T12:18:14.433Z,94970.01
2019-02-03T12:19:18.201Z,94982.99
2019-02-03T12:20:22.170Z,94975.81
2019-02-03T12:21:30.125Z,94985.52
2019-02-03T12:22:35.127Z,94991.83
2019-02-03T12:23:46.079Z,94993.72
2019-02-03T12:24:50.195Z,94998.72
2019-02-03T12:25:57.406Z,95002.63
2019-02-03T12:27:04.389Z,95002.13
2019-02-03T12:28:14.201Z,94999.80
2019-02-03T12:29:18.184Z,95006.58
2019-02-03T12:30:29.268Z,95007.12
2019-02-03T12:31:33.316Z,95006.80